Time;durP1;ratioP1;P1;durP2;ratioP2;P2;SDS_P1;SDS_P2;PMS_P1;PMS_P2;Temp;Humidity;BMP_temperature;BMP_pressure;BME280_temperature;BME280_humidity;BME280_pressure;Samples;Min_cycle;Max_cycle;Signal;HPM_P1;HPM_P2
2021/11/09 00:02:10;;;;;;;16.40;9.88;;;281.90;2278.40;;;;;;5004976;28;20375;-75
2021/11/09 00:04:42;;;;;;;17.15;10.55;;;281.80;2278.40;;;;;;5014801;28;20026;-85
2021/11/09 00:07:23;;;;;;;18.70;11.07;;;281.80;2278.40;;;;;;5014948;28;20053;-84
2021/11/09 00:09:58;;;;;;;25.10;12.90;;;281.80;2278.40;;;;;;5012558;28;20113;-83
2021/11/09 00:12:30;;;;;;;23.73;14.63;;;281.80;2278.40;;;;;;5016520;28;20033;-82
2021/11/09 00:14:58;;;;;;;25.43;14.23;;;281.70;2278.40;;;;;;5006915;28;20136;-80
2021/11/09 00:17:24;;;;;;;30.85;18.05;;;281.70;2278.40;;;;;;5010573;28;20268;-84
2021/11/09 00:19:51;;;;;;;30.27;17.90;;;281.70;2278.40;;;;;;5014832;28;20112;-83
2021/11/09 00:22:18;;;;;;;26.13;15.55;;;281.70;2278.40;;;;;;5015012;28;20032;-83
2021/11/09 00:24:44;;;;;;;27.52;15.38;;;281.70;2278.40;;;;;;5019960;28;20028;-85
2021/11/09 00:27:10;;;;;;;26.33;14.05;;;281.70;2278.40;;;;;;5026284;28;20049;-84
2021/11/09 00:29:36;;;;;;;21.95;13.43;;;281.60;2278.40;;;;;;5029054;28;20022;-85
2021/11/09 00:32:04;;;;;;;27.88;15.68;;;281.90;2278.40;;;;;;5005995;28;20421;-83
2021/11/09 00:34:30;;;;;;;27.27;17.45;;;281.90;2278.40;;;;;;5014750;28;20018;-81
2021/11/09 00:36:56;;;;;;;33.35;20.33;;;281.90;2278.40;;;;;;4997389;28;20121;-85
2021/11/09 00:39:23;;;;;;;30.23;19.58;;;282.00;2278.40;;;;;;5014891;28;20021;-84
2021/11/09 00:41:49;;;;;;;44.42;23.83;;;281.90;2278.40;;;;;;5014961;28;20378;-83
2021/11/09 00:44:15;;;;;;;37.03;22.00;;;281.80;2278.40;;;;;;5014678;28;20049;-84
2021/11/09 00:46:41;;;;;;;30.70;17.27;;;281.90;2278.40;;;;;;5014520;28;20065;-84
2021/11/09 00:49:07;;;;;;;34.15;18.95;;;281.90;2278.40;;;;;;5010853;28;20029;-84
2021/11/09 00:51:33;;;;;;;30.90;19.38;;;281.90;2278.40;;;;;;5003971;28;20030;-83
2021/11/09 00:53:58;;;;;;;29.67;15.63;;;281.90;2278.40;;;;;;5014522;28;20075;-84
2021/11/09 00:56:24;;;;;;;25.65;16.02;;;281.80;2278.40;;;;;;5014893;28;20111;-85
2021/11/09 00:58:50;;;;;;;26.83;16.17;;;281.70;2278.40;;;;;;5014789;28;20061;-84
2021/11/09 01:01:16;;;;;;;27.63;15.52;;;281.80;2278.40;;;;;;5014779;28;20029;-83
2021/11/09 01:03:42;;;;;;;22.60;15.18;;;281.80;2278.40;;;;;;5013981;28;20061;-83
2021/11/09 01:06:08;;;;;;;28.67;14.80;;;281.80;2278.40;;;;;;5014262;28;20018;-83
2021/11/09 01:08:34;;;;;;;21.85;14.88;;;281.80;2278.40;;;;;;5015824;28;20049;-83
2021/11/09 01:11:00;;;;;;;24.50;13.80;;;281.90;2278.40;;;;;;5015589;28;20394;-83
2021/11/09 01:13:27;;;;;;;22.08;13.98;;;282.00;2278.40;;;;;;5017608;28;20028;-79
2021/11/09 01:15:55;;;;;;;26.65;15.48;;;282.00;2278.40;;;;;;5017032;28;20026;-77
2021/11/09 01:18:27;;;;;;;22.17;13.55;;;282.00;2278.40;;;;;;5013379;28;20076;-76
2021/11/09 01:20:54;;;;;;;21.23;12.57;;;282.00;2278.40;;;;;;5013393;28;20025;-76
2021/11/09 01:23:22;;;;;;;20.73;12.20;;;281.90;2278.40;;;;;;4995491;28;20064;-76
2021/11/09 01:25:47;;;;;;;19.40;12.98;;;281.90;2278.40;;;;;;5004499;28;20026;-76
2021/11/09 01:28:13;;;;;;;20.33;12.27;;;281.70;2278.40;;;;;;5021107;28;20038;-77
2021/11/09 01:30:40;;;;;;;21.90;12.65;;;281.80;2278.40;;;;;;5029271;28;20075;-77
2021/11/09 01:33:06;;;;;;;19.60;13.75;;;281.90;2278.40;;;;;;5018585;28;20026;-77
2021/11/09 01:35:33;;;;;;;19.88;12.25;;;281.90;2278.40;;;;;;5013340;28;20052;-83
2021/11/09 01:37:59;;;;;;;16.25;10.38;;;281.90;2278.40;;;;;;5012098;28;20037;-77
2021/11/09 01:40:26;;;;;;;19.17;10.75;;;281.90;2278.40;;;;;;5013079;28;20034;-76
2021/11/09 01:42:54;;;;;;;17.45;11.18;;;281.90;2278.40;;;;;;4979461;28;20077;-76
2021/11/09 01:45:21;;;;;;;17.75;10.07;;;281.90;2278.40;;;;;;5013147;28;20112;-81
2021/11/09 01:47:49;;;;;;;18.10;11.07;;;281.80;2278.40;;;;;;5008761;28;20027;-81
2021/11/09 01:50:18;;;;;;;20.00;11.63;;;281.80;2278.40;;;;;;4992497;28;20031;-82
2021/11/09 01:52:44;;;;;;;21.30;13.20;;;281.70;2278.40;;;;;;5012801;28;20038;-78
2021/11/09 01:55:15;;;;;;;20.35;10.93;;;281.80;2278.40;;;;;;4979386;28;20386;-79
2021/11/09 01:57:42;;;;;;;19.35;10.52;;;281.70;2278.40;;;;;;5013147;28;20022;-76
2021/11/09 02:00:14;;;;;;;18.85;11.05;;;281.60;2278.40;;;;;;5013236;28;20030;-77
2021/11/09 02:02:40;;;;;;;18.52;11.10;;;281.60;2278.40;;;;;;5013757;28;20084;-76
2021/11/09 02:05:06;;;;;;;23.25;12.23;;;256.90;2252.80;;;;;;5016871;28;20117;-81
2021/11/09 02:07:32;;;;;;;18.42;11.35;;;256.90;2252.80;;;;;;5016795;28;20053;-77
2021/11/09 02:09:58;;;;;;;18.13;10.77;;;256.90;2252.80;;;;;;5017316;28;20037;-82
2021/11/09 02:12:24;;;;;;;23.40;12.82;;;281.60;2278.40;;;;;;4999874;28;20437;-78
2021/11/09 02:14:49;;;;;;;23.67;13.70;;;281.60;2278.40;;;;;;5017053;28;20018;-78
2021/11/09 02:17:15;;;;;;;20.25;12.40;;;256.90;2252.80;;;;;;5017168;28;20021;-78
2021/11/09 02:19:43;;;;;;;16.38;9.40;;;256.90;2252.80;;;;;;4996051;28;20015;-80
2021/11/09 02:22:09;;;;;;;22.25;12.68;;;281.60;2278.40;;;;;;5007088;28;20018;-78
2021/11/09 02:24:36;;;;;;;15.75;9.73;;;281.60;2278.40;;;;;;5016845;28;20496;-80
2021/11/09 02:27:03;;;;;;;17.52;11.70;;;281.60;2278.40;;;;;;4999194;28;20080;-81
2021/11/09 02:29:30;;;;;;;23.42;13.15;;;281.60;2278.40;;;;;;4999268;28;20053;-75
2021/11/09 02:31:56;;;;;;;24.08;11.30;;;281.60;2278.40;;;;;;5016716;28;20041;-82
2021/11/09 02:34:23;;;;;;;22.35;11.63;;;281.70;2278.40;;;;;;5015533;28;20033;-81
2021/11/09 02:36:48;;;;;;;29.60;12.13;;;281.70;2278.40;;;;;;5015242;28;20120;-76
2021/11/09 02:39:15;;;;;;;20.63;12.55;;;281.70;2278.40;;;;;;4998109;28;20566;-76
2021/11/09 02:41:40;;;;;;;21.65;11.15;;;281.70;2278.40;;;;;;4998444;28;20129;-77
2021/11/09 02:44:07;;;;;;;22.05;11.68;;;281.70;2278.40;;;;;;5002490;28;20102;-82
2021/11/09 02:51:34;;;;;;;19.98;10.90;;;256.90;2252.80;;;;;;5016105;28;20053;-82
2021/11/09 02:54:23;;;;;;;19.75;11.18;;;256.90;2252.80;;;;;;4998609;28;20084;-82
2021/11/09 02:56:58;;;;;;;16.00;9.65;;;256.90;2252.80;;;;;;5016098;28;20037;-82
2021/11/09 03:07:12;;;;;;;34.30;18.20;;;256.90;2252.80;;;;;;5016018;28;20057;-84
2021/11/09 03:10:01;;;;;;;27.70;13.50;;;281.60;2278.40;;;;;;5015891;28;20061;-79
2021/11/09 03:12:32;;;;;;;20.05;12.20;;;281.60;2278.40;;;;;;5016012;28;20044;-80
2021/11/09 03:14:58;;;;;;;23.08;13.57;;;281.60;2278.40;;;;;;5002863;28;20556;-78
2021/11/09 03:17:24;;;;;;;23.05;10.90;;;281.70;2278.40;;;;;;5015965;28;20018;-76
2021/11/09 03:19:57;;;;;;;18.85;11.48;;;281.70;2278.40;;;;;;5026772;28;20044;-76
2021/11/09 03:44:30;;;;;;;30.10;15.43;;;281.70;2278.40;;;;;;5015008;28;20076;-84
2021/11/09 03:47:05;;;;;;;20.65;12.15;;;281.70;2278.40;;;;;;5002272;28;20028;-81
2021/11/09 03:49:33;;;;;;;22.67;13.57;;;281.60;2278.40;;;;;;5020680;28;20551;-84
2021/11/09 03:52:03;;;;;;;23.27;13.65;;;281.60;2278.40;;;;;;5021500;28;20034;-78
2021/11/09 03:54:29;;;;;;;23.63;12.95;;;281.60;2278.40;;;;;;4998070;28;20030;-82
2021/11/09 03:57:11;;;;;;;30.42;15.07;;;281.60;2278.40;;;;;;5004337;28;20034;-83
2021/11/09 04:02:15;;;;;;;29.48;16.55;;;281.60;2278.40;;;;;;5015958;28;20022;-84
2021/11/09 04:07:14;;;;;;;30.05;17.40;;;281.70;2278.40;;;;;;5015414;28;20054;-84
2021/11/09 04:09:57;;;;;;;;;;;281.70;2278.40;;;;;;4998624;28;20478;-83
2021/11/09 04:20:13;;;;;;;24.75;14.93;;;281.80;2278.40;;;;;;5001369;28;20026;-84
2021/11/09 05:09:43;;;;;;;22.23;13.05;;;281.60;2278.40;;;;;;5030214;28;20096;-77
2021/11/09 05:12:09;;;;;;;26.73;15.90;;;256.90;2252.80;;;;;;4996203;28;20084;-77
2021/11/09 05:14:36;;;;;;;25.80;15.57;;;256.90;2252.80;;;;;;5020240;28;20389;-76
2021/11/09 05:17:02;;;;;;;29.05;17.23;;;281.60;2278.40;;;;;;5022803;28;20029;-83
2021/11/09 05:19:28;;;;;;;33.90;20.60;;;281.60;2278.40;;;;;;5031452;28;20170;-76
2021/11/09 05:21:55;;;;;;;32.03;17.48;;;281.60;2278.40;;;;;;5023420;28;20466;-85
2021/11/09 05:24:21;;;;;;;27.02;15.38;;;281.60;2278.40;;;;;;5008985;28;20044;-77
2021/11/09 05:26:47;;;;;;;29.45;17.00;;;281.60;2278.40;;;;;;5008744;28;20100;-77
2021/11/09 05:29:13;;;;;;;25.98;14.73;;;281.70;2278.40;;;;;;5014770;28;20037;-76
2021/11/09 05:31:40;;;;;;;24.65;14.45;;;281.60;2278.40;;;;;;5014095;28;20137;-77
2021/11/09 05:34:08;;;;;;;21.13;12.80;;;281.60;2278.40;;;;;;5013406;28;20018;-76
2021/11/09 05:36:38;;;;;;;29.27;14.40;;;281.60;2278.40;;;;;;5006980;28;20030;-76
2021/11/09 05:41:38;;;;;;;25.60;16.38;;;281.60;2278.40;;;;;;5014329;28;20037;-78
2021/11/09 05:44:06;;;;;;;21.95;13.00;;;281.60;2278.40;;;;;;5012061;28;20032;-83
2021/11/09 05:46:36;;;;;;;25.75;15.73;;;281.60;2278.40;;;;;;4995477;28;20041;-78
2021/11/09 05:49:04;;;;;;;92.28;46.75;;;281.60;2278.40;;;;;;5012802;28;20033;-76
2021/11/09 05:51:30;;;;;;;66.35;35.05;;;281.60;2278.40;;;;;;4994090;28;20144;-84
2021/11/09 05:53:57;;;;;;;31.52;19.42;;;281.60;2278.40;;;;;;5013547;28;20088;-76
2021/11/09 05:56:23;;;;;;;27.75;15.93;;;256.90;2252.80;;;;;;5013201;28;20428;-76
2021/11/09 05:58:49;;;;;;;57.33;32.03;;;256.90;2252.80;;;;;;5017466;28;20026;-76
2021/11/09 06:01:15;;;;;;;109.88;61.80;;;256.80;2252.80;;;;;;5033285;28;20029;-80
2021/11/09 06:03:41;;;;;;;52.38;29.95;;;256.90;2252.80;;;;;;5015342;28;20500;-84
2021/11/09 06:06:07;;;;;;;61.13;34.60;;;256.90;2252.80;;;;;;5014467;28;20055;-78
2021/11/09 06:08:32;;;;;;;34.78;20.88;;;256.90;2252.80;;;;;;5013027;28;20054;-82
2021/11/09 06:10:59;;;;;;;25.13;17.15;;;256.80;2252.80;;;;;;5011812;28;20045;-82
2021/11/09 06:13:25;;;;;;;41.53;23.83;;;256.70;2252.80;;;;;;5013457;28;20026;-81
2021/11/09 06:15:51;;;;;;;38.17;24.77;;;256.70;2252.80;;;;;;5015099;28;20445;-82
2021/11/09 06:18:17;;;;;;;39.83;24.48;;;256.60;2252.80;;;;;;5013739;28;20105;-82
2021/11/09 06:20:43;;;;;;;29.25;18.92;;;256.50;2252.80;;;;;;4995626;28;20030;-76
2021/11/09 06:23:08;;;;;;;35.50;25.35;;;256.60;2252.80;;;;;;5012413;28;20018;-78
2021/11/09 06:25:34;;;;;;;28.38;17.75;;;256.50;2252.80;;;;;;5012915;28;20058;-78
2021/11/09 06:28:04;;;;;;;21.17;13.60;;;256.50;2252.80;;;;;;5014646;28;20022;-77
2021/11/09 06:30:30;;;;;;;20.08;12.07;;;256.50;2252.80;;;;;;4995835;28;20463;-77
2021/11/09 06:32:56;;;;;;;25.83;15.40;;;256.50;2252.80;;;;;;4995809;28;20033;-77
2021/11/09 06:35:22;;;;;;;28.70;15.50;;;256.40;2252.80;;;;;;5012851;28;20022;-77
2021/11/09 06:37:48;;;;;;;27.88;17.42;;;256.40;2252.80;;;;;;5012775;28;20038;-77
2021/11/09 06:40:14;;;;;;;37.03;20.92;;;256.40;2252.80;;;;;;5012356;28;20059;-76
2021/11/09 06:42:40;;;;;;;43.17;23.23;;;256.50;2252.80;;;;;;5011686;28;20125;-82
2021/11/09 06:45:06;;;;;;;33.88;17.08;;;256.50;2252.80;;;;;;4992362;28;20026;-81
2021/11/09 06:47:32;;;;;;;32.78;17.40;;;256.40;2252.80;;;;;;4992444;28;20181;-76
2021/11/09 06:49:58;;;;;;;29.15;16.67;;;256.30;2252.80;;;;;;5007239;28;20025;-78
2021/11/09 06:52:24;;;;;;;26.38;16.73;;;256.30;2252.80;;;;;;5017758;28;20099;-76
2021/11/09 06:54:50;;;;;;;36.72;21.60;;;256.30;2252.80;;;;;;5017284;28;20033;-78
2021/11/09 06:57:16;;;;;;;37.03;21.50;;;256.30;2252.80;;;;;;5012715;28;20088;-81
2021/11/09 06:59:42;;;;;;;36.65;23.00;;;256.50;2252.80;;;;;;5016342;28;20038;-77
2021/11/09 07:02:08;;;;;;;33.08;19.00;;;256.40;2252.80;;;;;;5016324;28;20056;-80
2021/11/09 07:04:34;;;;;;;34.67;21.95;;;256.50;2252.80;;;;;;5011523;28;20041;-76
2021/11/09 07:07:01;;;;;;;38.55;22.33;;;256.50;2252.80;;;;;;4995071;28;20050;-77
2021/11/09 07:09:27;;;;;;;33.53;20.92;;;256.50;2252.80;;;;;;5013664;28;20093;-79
2021/11/09 07:11:53;;;;;;;31.42;18.75;;;256.60;2252.80;;;;;;5016413;28;20046;-78
2021/11/09 07:14:19;;;;;;;34.45;19.85;;;256.60;2252.80;;;;;;5016172;28;20466;-78
2021/11/09 07:16:46;;;;;;;37.47;22.25;;;256.60;2252.80;;;;;;4999640;28;20491;-77
2021/11/09 07:19:14;;;;;;;45.22;26.92;;;256.50;2252.80;;;;;;5017899;28;20022;-78
2021/11/09 07:21:39;;;;;;;68.40;41.47;;;256.50;2252.80;;;;;;4994325;28;20030;-77
2021/11/09 07:24:06;;;;;;;50.13;31.13;;;256.60;2252.80;;;;;;5009798;28;20029;-78
2021/11/09 07:26:33;;;;;;;45.50;27.80;;;256.70;2252.80;;;;;;5019133;28;20022;-79
2021/11/09 07:28:59;;;;;;;32.13;19.40;;;256.70;2252.80;;;;;;5000329;28;20032;-78
2021/11/09 07:31:31;;;;;;;32.22;19.65;;;256.70;2252.80;;;;;;5018127;28;20034;-80
2021/11/09 07:33:58;;;;;;;55.08;35.75;;;256.60;2252.80;;;;;;5003603;28;20022;-79
2021/11/09 07:36:25;;;;;;;55.33;36.08;;;256.70;2252.80;;;;;;5001582;28;20038;-78
2021/11/09 07:38:50;;;;;;;44.88;30.55;;;256.80;2252.80;;;;;;5020880;28;20589;-78
2021/11/09 07:41:17;;;;;;;22.25;15.07;;;256.80;2252.80;;;;;;5000507;28;20034;-78
2021/11/09 07:43:43;;;;;;;30.42;17.95;;;256.80;2252.80;;;;;;5001489;28;20034;-78
2021/11/09 07:46:09;;;;;;;30.98;19.85;;;256.70;2252.80;;;;;;5017253;28;20057;-78
2021/11/09 07:48:38;;;;;;;32.88;20.25;;;256.70;2252.80;;;;;;5002265;28;20061;-77
2021/11/09 07:51:04;;;;;;;21.98;15.23;;;256.70;2252.80;;;;;;5018433;28;20041;-78
2021/11/09 07:53:34;;;;;;;27.90;15.57;;;256.50;2252.80;;;;;;5006721;28;20026;-77
2021/11/09 07:58:43;;;;;;;19.15;11.82;;;256.50;2252.80;;;;;;5020046;28;20030;-79
2021/11/09 08:01:16;;;;;;;20.45;12.48;;;256.50;2252.80;;;;;;5017036;28;20484;-78
2021/11/09 08:03:49;;;;;;;25.55;14.43;;;256.50;2252.80;;;;;;5017405;28;20026;-79
2021/11/09 08:06:30;;;;;;;25.65;16.15;;;256.60;2252.80;;;;;;4997256;28;20466;-78
2021/11/09 08:11:25;;;;;;;33.58;25.35;;;256.70;2252.80;;;;;;5018006;28;20057;-78
2021/11/09 08:13:51;;;;;;;32.15;20.45;;;256.70;2252.80;;;;;;5005660;28;20034;-78
2021/11/09 08:16:17;;;;;;;47.85;28.48;;;256.70;2252.80;;;;;;5014584;28;20026;-78
2021/11/09 08:18:44;;;;;;;26.92;18.40;;;256.70;2252.80;;;;;;5017017;28;20057;-77
2021/11/09 08:21:12;;;;;;;26.65;18.15;;;256.60;2252.80;;;;;;5014221;28;20030;-78
2021/11/09 08:23:38;;;;;;;28.45;17.17;;;256.70;2252.80;;;;;;4996774;28;20100;-82
2021/11/09 08:26:04;;;;;;;35.65;21.05;;;256.70;2252.80;;;;;;5013070;28;20107;-78
2021/11/09 08:28:30;;;;;;;32.92;22.52;;;256.70;2252.80;;;;;;5000574;28;20018;-79
2021/11/09 08:31:03;;;;;;;35.05;23.75;;;281.60;2278.40;;;;;;4998313;28;20076;-77
2021/11/09 08:33:29;;;;;;;29.35;17.00;;;256.70;2252.80;;;;;;5013773;28;20483;-78
2021/11/09 08:35:57;;;;;;;16.90;12.00;;;256.60;2252.80;;;;;;5014215;28;20034;-78
2021/11/09 08:38:23;;;;;;;22.17;14.93;;;256.50;2252.80;;;;;;5013468;28;20079;-78
2021/11/09 08:40:51;;;;;;;19.63;12.32;;;256.50;2252.80;;;;;;5010259;28;20442;-79
2021/11/09 08:43:19;;;;;;;26.65;19.23;;;256.40;2252.80;;;;;;5014059;28;20025;-79
2021/11/09 08:48:18;;;;;;;16.90;14.32;;;256.40;2252.80;;;;;;5014265;28;20026;-79
2021/11/09 08:50:48;;;;;;;23.65;15.98;;;256.40;2252.80;;;;;;5013597;28;20490;-78
2021/11/09 08:53:21;;;;;;;18.00;11.02;;;256.40;2252.80;;;;;;5004933;28;20153;-78
2021/11/09 09:06:15;;;;;;;18.80;10.80;;;256.30;2252.80;;;;;;4933575;29;20029;-77
2021/11/09 09:08:41;;;;;;;19.85;12.30;;;256.30;2252.80;;;;;;4934152;29;20611;-77
2021/11/09 09:11:07;;;;;;;37.80;21.05;;;256.30;2252.80;;;;;;4933347;29;20031;-77
2021/11/09 09:13:33;;;;;;;24.00;14.63;;;256.30;2252.80;;;;;;4918510;29;20414;-78
2021/11/09 09:15:58;;;;;;;17.83;11.88;;;256.30;2252.80;;;;;;4931818;29;20028;-78
2021/11/09 09:18:24;;;;;;;29.58;18.35;;;256.40;2252.80;;;;;;4921747;29;20451;-77
2021/11/09 09:20:57;;;;;;;19.50;13.65;;;256.40;2252.80;;;;;;4933776;29;20044;-77
2021/11/09 09:23:27;;;;;;;;;;;256.40;2252.80;;;;;;4918227;29;20051;-77
2021/11/09 09:56:09;;;;;;;34.10;20.35;;;256.50;2252.80;;;;;;4955940;29;20590;-79
2021/11/09 09:58:35;;;;;;;34.05;19.00;;;256.50;2252.80;;;;;;4956629;29;20035;-78
2021/11/09 10:01:01;;;;;;;32.30;20.83;;;256.50;2252.80;;;;;;4956315;29;20035;-76
2021/11/09 10:03:35;;;;;;;23.40;14.07;;;256.50;2252.80;;;;;;4953752;29;20043;-78
2021/11/09 10:06:02;;;;;;;15.93;10.55;;;256.60;2252.80;;;;;;4956456;29;20031;-79
2021/11/09 10:08:39;;;;;;;17.48;11.68;;;256.60;2252.80;;;;;;4962230;28;20119;-79
2021/11/09 10:11:05;;;;;;;20.70;11.85;;;256.70;2252.80;;;;;;4972692;28;20198;-78
2021/11/09 10:13:39;;;;;;;21.98;13.32;;;256.70;2252.80;;;;;;4976664;28;20023;-78
2021/11/09 10:16:05;;;;;;;21.50;13.25;;;256.70;2252.80;;;;;;4959630;28;20031;-80
2021/11/09 10:18:33;;;;;;;22.08;15.70;;;256.80;2252.80;;;;;;4982005;28;20031;-83
2021/11/09 10:21:01;;;;;;;18.38;11.07;;;256.80;2252.80;;;;;;4971903;28;20512;-83
2021/11/09 10:23:29;;;;;;;18.05;11.88;;;256.80;2252.80;;;;;;4973062;28;20038;-80
2021/11/09 10:26:00;;;;;;;18.08;13.13;;;256.80;2252.80;;;;;;4960218;28;20065;-82
2021/11/09 10:28:26;;;;;;;19.17;12.00;;;256.80;2252.80;;;;;;4987992;28;20066;-81
2021/11/09 10:30:56;;;;;;;15.27;10.95;;;256.80;2252.80;;;;;;5017498;28;20045;-82
2021/11/09 10:33:34;;;;;;;17.90;11.45;;;256.80;2252.80;;;;;;5016745;28;20459;-80
2021/11/09 10:35:59;;;;;;;15.80;11.20;;;256.90;2252.80;;;;;;5017092;28;20030;-80
2021/11/09 10:38:29;;;;;;;11.77;9.32;;;256.90;2252.80;;;;;;5017169;28;20026;-79
2021/11/09 10:40:55;;;;;;;13.65;8.45;;;256.90;2252.80;;;;;;5017097;28;20022;-79
2021/11/09 10:43:22;;;;;;;11.65;8.93;;;256.80;2252.80;;;;;;5016463;28;20028;-82
2021/11/09 10:45:49;;;;;;;10.80;7.70;;;256.80;2252.80;;;;;;5012044;28;20126;-82
2021/11/09 10:48:17;;;;;;;11.38;9.13;;;256.70;2252.80;;;;;;4998490;28;20026;-81
2021/11/09 10:50:47;;;;;;;18.20;10.38;;;256.70;2252.80;;;;;;5004849;28;20475;-80
2021/11/09 10:53:30;;;;;;;11.77;9.05;;;256.80;2252.80;;;;;;5010784;28;20037;-84
2021/11/09 10:59:07;;;;;;;12.32;7.07;;;256.80;2252.80;;;;;;5019788;28;20065;-82
2021/11/09 11:04:38;;;;;;;12.57;7.95;;;256.80;2252.80;;;;;;5016150;28;20092;-80
2021/11/09 11:07:07;;;;;;;17.95;12.52;;;256.80;2252.80;;;;;;5015839;28;20514;-79
2021/11/09 11:09:35;;;;;;;17.63;12.73;;;256.70;2252.80;;;;;;5017791;28;20021;-78
2021/11/09 11:12:06;;;;;;;13.73;9.40;;;256.70;2252.80;;;;;;5016400;28;20791;-85
2021/11/09 11:14:32;;;;;;;11.45;7.57;;;256.70;2252.80;;;;;;5018544;28;20022;-78
2021/11/09 11:17:10;;;;;;;12.75;8.57;;;256.70;2252.80;;;;;;5016113;28;20022;-80
2021/11/09 11:19:38;;;;;;;14.73;8.77;;;256.80;2252.80;;;;;;5014860;28;20113;-76
2021/11/09 11:22:06;;;;;;;17.40;12.07;;;256.80;2252.80;;;;;;5006678;28;20015;-77
2021/11/09 11:24:36;;;;;;;31.83;19.17;;;256.70;2252.80;;;;;;4985495;28;20030;-77
2021/11/09 11:27:04;;;;;;;49.05;27.15;;;256.70;2252.80;;;;;;5016096;28;20430;-78
2021/11/09 11:29:36;;;;;;;66.43;38.50;;;256.70;2252.80;;;;;;5015642;28;20032;-80
2021/11/09 11:32:06;;;;;;;81.05;45.10;;;256.70;2252.80;;;;;;5012043;28;20037;-80
2021/11/09 11:34:32;;;;;;;89.57;52.83;;;256.70;2252.80;;;;;;5015099;28;20026;-77
2021/11/09 11:36:58;;;;;;;36.47;21.25;;;256.70;2252.80;;;;;;4997474;28;20030;-79
2021/11/09 11:39:27;;;;;;;22.60;14.18;;;256.80;2252.80;;;;;;4997889;28;20044;-84
2021/11/09 11:42:05;;;;;;;15.65;10.32;;;256.90;2252.80;;;;;;5015647;28;20025;-85
2021/11/09 11:44:31;;;;;;;10.98;6.97;;;256.90;2252.80;;;;;;5015950;28;20029;-78
2021/11/09 11:47:13;;;;;;;13.15;8.75;;;256.90;2252.80;;;;;;5017252;28;20779;-79
2021/11/09 11:49:42;;;;;;;13.70;8.73;;;256.90;2252.80;;;;;;5017285;28;20018;-79
2021/11/09 11:52:26;;;;;;;15.45;10.27;;;281.60;2278.40;;;;;;5016160;28;20045;-83
2021/11/09 11:55:05;;;;;;;22.00;16.25;;;281.60;2278.40;;;;;;4998308;28;20037;-84
2021/11/09 11:57:41;;;;;;;14.63;10.77;;;281.60;2278.40;;;;;;4998838;28;20021;-81
2021/11/09 12:00:42;;;;;;;13.00;9.88;;;281.60;2278.40;;;;;;4998396;28;20030;-82
2021/11/09 12:03:35;;;;;;;15.13;9.00;;;281.70;2278.40;;;;;;5015286;28;20075;-78
2021/11/09 12:06:16;;;;;;;14.75;10.27;;;281.80;2278.40;;;;;;5012887;28;20125;-79
2021/11/09 12:08:48;;;;;;;17.33;10.00;;;281.90;2278.40;;;;;;4997306;28;20085;-77
2021/11/09 12:11:22;;;;;;;16.42;10.43;;;281.90;2278.40;;;;;;5014373;28;20030;-76
2021/11/09 12:14:00;;;;;;;13.98;10.82;;;281.90;2278.40;;;;;;4997076;28;20026;-78
2021/11/09 12:16:48;;;;;;;17.98;9.43;;;281.80;2278.40;;;;;;5014956;28;20090;-77
2021/11/09 12:19:36;;;;;;;16.00;9.88;;;281.80;2278.40;;;;;;5014534;28;20029;-78
2021/11/09 12:22:35;;;;;;;16.05;11.43;;;281.90;2278.40;;;;;;5001502;28;20026;-79
2021/11/09 12:25:01;;;;;;;13.95;9.35;;;281.90;2278.40;;;;;;4934748;29;20027;-78
2021/11/09 12:27:47;;;;;;;15.68;10.32;;;282.00;2278.40;;;;;;4936834;29;20449;-77
2021/11/09 12:30:38;;;;;;;15.30;10.25;;;282.00;2278.40;;;;;;4934266;29;20119;-77
2021/11/09 12:33:27;;;;;;;22.70;12.85;;;282.00;2278.40;;;;;;4934656;29;20044;-78
2021/11/09 12:35:59;;;;;;;20.15;13.10;;;282.00;2278.40;;;;;;4925789;29;20105;-75
2021/11/09 12:38:36;;;;;;;16.58;11.02;;;282.00;2278.40;;;;;;4934130;29;20102;-76
2021/11/09 12:41:19;;;;;;;13.43;9.13;;;282.10;2278.40;;;;;;4906701;29;20046;-79
2021/11/09 12:44:03;;;;;;;15.90;10.45;;;282.10;2278.40;;;;;;4934196;29;20539;-78
2021/11/09 12:46:36;;;;;;;21.33;13.30;;;282.10;2278.40;;;;;;4933855;29;20548;-82
2021/11/09 12:49:17;;;;;;;18.67;11.27;;;282.10;2278.40;;;;;;4934131;29;20059;-79
2021/11/09 12:51:52;;;;;;;18.27;10.93;;;282.20;2278.40;;;;;;4933375;29;20043;-77
2021/11/09 12:54:20;;;;;;;17.75;10.00;;;282.20;2278.40;;;;;;4929610;29;20032;-77
2021/11/09 12:56:57;;;;;;;18.67;10.63;;;282.20;2278.40;;;;;;4925523;29;20024;-79
2021/11/09 12:59:29;;;;;;;17.70;11.52;;;282.20;2278.40;;;;;;4933968;29;20028;-78
2021/11/09 13:09:59;;;;;;;20.65;12.98;;;282.20;2278.40;;;;;;5008733;28;20097;-76
2021/11/09 13:12:31;;;;;;;23.17;12.88;;;282.20;2278.40;;;;;;5010457;28;20042;-76
2021/11/09 13:15:09;;;;;;;20.38;12.70;;;282.20;2278.40;;;;;;5012220;28;20018;-76
2021/11/09 13:17:40;;;;;;;20.52;12.90;;;282.20;2278.40;;;;;;5014428;28;20029;-76
2021/11/09 13:23:05;;;;;;;26.15;15.55;;;282.20;2278.40;;;;;;5006690;28;20053;-76
2021/11/09 13:25:50;;;;;;;23.98;15.05;;;282.20;2278.40;;;;;;5013067;28;20030;-80
2021/11/09 13:28:32;;;;;;;26.58;16.35;;;282.20;2278.40;;;;;;5013917;28;20101;-78
2021/11/09 13:31:07;;;;;;;20.95;13.65;;;282.20;2278.40;;;;;;4997527;28;20029;-80
2021/11/09 13:33:37;;;;;;;22.33;12.60;;;282.20;2278.40;;;;;;4995365;28;20034;-78
2021/11/09 13:36:03;;;;;;;19.67;11.93;;;282.20;2278.40;;;;;;5011379;28;20074;-79
2021/11/09 13:38:36;;;;;;;21.55;13.40;;;282.20;2278.40;;;;;;5013428;28;20115;-79
2021/11/09 13:41:08;;;;;;;23.40;14.32;;;282.20;2278.40;;;;;;5015042;28;20018;-78
2021/11/09 13:43:41;;;;;;;22.77;14.52;;;282.20;2278.40;;;;;;4992947;28;20061;-78
2021/11/09 13:46:16;;;;;;;25.05;15.63;;;282.20;2278.40;;;;;;4978867;28;20081;-79
2021/11/09 13:48:59;;;;;;;26.92;18.10;;;282.20;2278.40;;;;;;4995787;28;20027;-82
2021/11/09 13:51:27;;;;;;;25.92;15.63;;;282.10;2278.40;;;;;;4994776;28;20035;-82
2021/11/09 13:54:09;;;;;;;25.40;16.70;;;282.10;2278.40;;;;;;4993925;28;20034;-79
2021/11/09 13:56:35;;;;;;;35.65;19.65;;;282.20;2278.40;;;;;;4994815;28;20050;-78
2021/11/09 13:59:11;;;;;;;33.67;21.95;;;282.20;2278.40;;;;;;4992671;28;20415;-77
2021/11/09 14:01:41;;;;;;;35.45;21.77;;;282.20;2278.40;;;;;;4993608;28;20029;-77
2021/11/09 14:04:30;;;;;;;35.25;22.25;;;282.20;2278.40;;;;;;4993598;28;20444;-77
2021/11/09 14:07:16;;;;;;;38.42;22.33;;;282.20;2278.40;;;;;;4993601;28;20124;-76
2021/11/09 14:15:12;;;;;;;27.88;18.77;;;282.10;2278.40;;;;;;4995748;28;20093;-75
2021/11/09 14:17:38;;;;;;;35.25;20.88;;;282.10;2278.40;;;;;;4993756;28;20471;-79
2021/11/09 14:20:22;;;;;;;39.28;23.40;;;282.10;2278.40;;;;;;4993730;28;20076;-79
2021/11/09 14:23:03;;;;;;;30.88;20.77;;;282.20;2278.40;;;;;;4993784;28;20101;-83
2021/11/09 14:25:30;;;;;;;25.17;17.23;;;282.10;2278.40;;;;;;4993524;28;20053;-83
2021/11/09 14:27:56;;;;;;;36.22;21.33;;;282.10;2278.40;;;;;;4993626;28;20449;-83
2021/11/09 14:30:25;;;;;;;33.28;20.13;;;282.10;2278.40;;;;;;4993484;28;20022;-83
2021/11/09 14:33:02;;;;;;;28.42;19.10;;;282.10;2278.40;;;;;;4993631;28;20537;-83
2021/11/09 14:35:33;;;;;;;33.67;18.83;;;282.20;2278.40;;;;;;4993625;28;20034;-81
2021/11/09 14:38:05;;;;;;;40.05;25.60;;;282.10;2278.40;;;;;;4976160;28;20026;-79
2021/11/09 14:40:38;;;;;;;33.80;22.48;;;282.10;2278.40;;;;;;4993480;28;20038;-78
2021/11/09 14:43:43;;;;;;;42.60;26.42;;;282.10;2278.40;;;;;;4993367;28;20027;-78
2021/11/09 14:46:14;;;;;;;43.97;26.98;;;282.10;2278.40;;;;;;5002648;28;20041;-78
2021/11/09 14:53:46;;;;;;;39.28;25.35;;;282.10;2278.40;;;;;;5003677;28;20528;-76
2021/11/09 14:56:16;;;;;;;47.03;29.42;;;282.10;2278.40;;;;;;4985845;28;20050;-78
2021/11/09 14:58:48;;;;;;;46.15;28.25;;;282.20;2278.40;;;;;;4993812;28;20041;-77
2021/11/09 15:01:43;;;;;;;58.10;36.75;;;282.20;2278.40;;;;;;4994763;28;20018;-80
2021/11/09 15:04:18;;;;;;;114.78;71.55;;;282.20;2278.40;;;;;;5000409;28;20491;-78
2021/11/09 15:26:17;;;;;;;60.65;36.92;;;282.10;2278.40;;;;;;4942754;29;20046;-77
2021/11/09 15:29:07;;;;;;;61.08;39.67;;;282.10;2278.40;;;;;;4955797;29;20500;-83